Aeroporto :
LOGIN :

Iscrizione | Disclaimer

   EN    FR    IT 

 










Sommario :    VFR   VFR Marginale   IFR   IFR Intensivo   IFR Molto Intensivo
Visibilità : 
Base nubi : 
>= 8 km
>= 3000ft
5 / 8 km
1000 / 3000 ft
1500m / 5 km
500 / 1000 ft
800 / 1500m
200 / 500 ft
< 800m
< 200 ft
Simboli :   Temporali  Nebbia  Neve Forte  Precipitazioni Forti  Vento > 20 kt
SIGMETs :   Varie  Temporali  Ghiacco  Turbolenza  Onda orograficha  Ceneri Vulcaniche






- Altitudine del aeroporto : 49 ft
- Codice IATA : GLZ


EHGR - Gilze-Rijen Airbase

ULTIMO METAR :
  • 281125Z AUTO 22005KT 190V250 3500 R28/P3000U BR FEW004 BKN006 OVC007 10/09 Q1010 YLO TEMPO 1500 DZRA BR BKN002 BKN004

METARs OBSOLETI :
  • 281055Z AUTO 21005KT 160V260 3200 R28/P3000N BR BKN004 OVC005 09/09 Q1010 YLO TEMPO 1500 DZRA BR BKN002 BKN004
  • 281025Z AUTO 21004KT 170V240 3500 R28/P3000N BR BKN003 OVC004 09/09 Q1010 YLO TEMPO 1500 DZRA BR BKN002 BKN004
  • 280955Z AUTO 21004KT 170V240 3200 R28/P3000N BR BKN003 OVC004 09/09 Q1010 YLO TEMPO 1500 DZRA BR BKN002 BKN004
  • 280949Z AUTO 20005KT 180V240 3200 R28/P3000N BR OVC003 09/09 Q1010 YLO TEMPO 1500 DZRA BR BKN002 BKN004
  • 280936Z AUTO 21005KT 170V230 3100 R28/P3000N BR BKN002 OVC004 09/09 Q1009 AMB TEMPO 1500 DZRA BR BKN002 BKN004
  • 280925Z AUTO VRB04KT 2900 R28/P3000N -DZ BKN002 OVC003 09/09 Q1009 REDZ AMB TEMPO 1500 DZRA BR BKN002 BKN004
  • 280918Z AUTO 22004KT 180V270 2600 R28/P3000D DZ OVC002 09/09 Q1009 AMB TEMPO 1500 DZRA BR BKN002 BKN004
  • 280908Z AUTO 22004KT 140V270 2200 R28/P3000U DZ BKN002 OVC003 09/09 Q1009 AMB TEMPO 1500 DZRA BR BKN002 BKN004
  • 280855Z AUTO 21004KT 180V250 2700 R28/2600U DZRA BKN002 OVC003 08/08 Q1009 AMB TEMPO 1500 DZRA BR BKN002 BKN004

TAF TAF EHGR
Valido dal 28 a 10 ore il 28 a 22 ore UTC


280932Z 2810/2822 22005KT 3500 BR BKN003 OVC004
TEMPO 2810/2815 2000 -DZ BKN002 OVC003
PROB30
TEMPO 2811/2815 9999 NSC
BECMG 2815/2817 VRB02KT 2000 BR
BECMG 2817/2820 0300 FG VV001



MetMap, La meteo Aeronautica in un colpo d'occhio ! - Copyright ORBIFLY Dicembre 2007 - Disclaimer

ORBIFLY MET'MAP TEAM :

Programmazione e sviluppo : Alexandra Zaïnal
Concezione : Baudouin d'Aumeries
Supporto tecnico e logistico : Manuel Goepfert
Aiuto : Marc-Olivier Méhu
Aiuto per la traduzione : Arnaldo La Scala




FONTI E CREDITI :

   NOAA